sensor_id;sensor_type;location;lat;lon;timestamp;P1;durP1;ratioP1;P2;durP2;ratioP2
8050;SDS011;4068;42.158;24.732;2023-06-26T00:01:27;11.20;;;5.45;;
8050;SDS011;4068;42.158;24.732;2023-06-26T00:04:00;6.47;;;4.80;;
8050;SDS011;4068;42.158;24.732;2023-06-26T00:06:26;7.78;;;5.53;;
8050;SDS011;4068;42.158;24.732;2023-06-26T00:08:53;7.15;;;5.20;;
8050;SDS011;4068;42.158;24.732;2023-06-26T00:11:19;10.30;;;5.78;;
8050;SDS011;4068;42.158;24.732;2023-06-26T00:13:45;9.07;;;5.38;;
8050;SDS011;4068;42.158;24.732;2023-06-26T00:16:11;8.98;;;5.82;;
8050;SDS011;4068;42.158;24.732;2023-06-26T00:18:36;9.48;;;5.47;;
8050;SDS011;4068;42.158;24.732;2023-06-26T00:21:01;11.80;;;5.10;;
8050;SDS011;4068;42.158;24.732;2023-06-26T00:23:27;8.63;;;5.30;;
8050;SDS011;4068;42.158;24.732;2023-06-26T00:25:53;8.00;;;6.10;;
8050;SDS011;4068;42.158;24.732;2023-06-26T00:28:18;8.90;;;5.15;;
8050;SDS011;4068;42.158;24.732;2023-06-26T00:30:44;8.75;;;5.50;;
8050;SDS011;4068;42.158;24.732;2023-06-26T00:33:09;8.45;;;5.32;;
8050;SDS011;4068;42.158;24.732;2023-06-26T00:35:35;9.50;;;5.47;;
8050;SDS011;4068;42.158;24.732;2023-06-26T00:38:00;11.50;;;5.53;;
8050;SDS011;4068;42.158;24.732;2023-06-26T00:40:26;11.73;;;5.57;;
8050;SDS011;4068;42.158;24.732;2023-06-26T00:42:52;8.88;;;5.45;;
8050;SDS011;4068;42.158;24.732;2023-06-26T00:45:18;9.80;;;5.60;;
8050;SDS011;4068;42.158;24.732;2023-06-26T00:47:44;10.38;;;5.65;;
8050;SDS011;4068;42.158;24.732;2023-06-26T00:50:09;7.38;;;5.32;;
8050;SDS011;4068;42.158;24.732;2023-06-26T00:52:36;9.75;;;5.50;;
8050;SDS011;4068;42.158;24.732;2023-06-26T00:55:02;8.98;;;5.40;;
8050;SDS011;4068;42.158;24.732;2023-06-26T00:57:29;10.18;;;5.82;;
8050;SDS011;4068;42.158;24.732;2023-06-26T00:59:55;8.20;;;6.00;;
8050;SDS011;4068;42.158;24.732;2023-06-26T01:02:21;11.15;;;6.15;;
8050;SDS011;4068;42.158;24.732;2023-06-26T01:04:48;12.32;;;6.72;;
8050;SDS011;4068;42.158;24.732;2023-06-26T01:07:15;11.93;;;6.57;;
8050;SDS011;4068;42.158;24.732;2023-06-26T01:09:43;9.32;;;5.93;;
8050;SDS011;4068;42.158;24.732;2023-06-26T01:12:10;9.45;;;5.65;;
8050;SDS011;4068;42.158;24.732;2023-06-26T01:14:35;11.73;;;6.40;;
8050;SDS011;4068;42.158;24.732;2023-06-26T01:17:02;10.30;;;6.40;;
8050;SDS011;4068;42.158;24.732;2023-06-26T01:19:29;11.27;;;6.47;;
8050;SDS011;4068;42.158;24.732;2023-06-26T01:22:00;10.23;;;6.20;;
8050;SDS011;4068;42.158;24.732;2023-06-26T01:24:39;9.13;;;6.38;;
8050;SDS011;4068;42.158;24.732;2023-06-26T01:27:19;13.73;;;6.70;;
8050;SDS011;4068;42.158;24.732;2023-06-26T01:29:47;9.73;;;6.43;;
8050;SDS011;4068;42.158;24.732;2023-06-26T01:32:15;14.50;;;6.90;;
8050;SDS011;4068;42.158;24.732;2023-06-26T01:34:40;12.68;;;6.40;;
8050;SDS011;4068;42.158;24.732;2023-06-26T01:37:07;12.23;;;6.97;;
8050;SDS011;4068;42.158;24.732;2023-06-26T01:39:32;15.30;;;6.47;;
8050;SDS011;4068;42.158;24.732;2023-06-26T01:41:57;11.68;;;7.28;;
8050;SDS011;4068;42.158;24.732;2023-06-26T01:44:28;11.73;;;6.30;;
8050;SDS011;4068;42.158;24.732;2023-06-26T01:52:09;12.20;;;6.38;;
8050;SDS011;4068;42.158;24.732;2023-06-26T01:54:58;13.93;;;7.70;;
8050;SDS011;4068;42.158;24.732;2023-06-26T01:57:31;10.13;;;6.97;;
8050;SDS011;4068;42.158;24.732;2023-06-26T01:59:57;13.75;;;7.53;;
8050;SDS011;4068;42.158;24.732;2023-06-26T02:02:24;11.23;;;7.32;;
8050;SDS011;4068;42.158;24.732;2023-06-26T02:04:50;11.57;;;8.00;;
8050;SDS011;4068;42.158;24.732;2023-06-26T02:07:16;15.90;;;7.35;;
8050;SDS011;4068;42.158;24.732;2023-06-26T02:09:42;16.38;;;7.50;;
8050;SDS011;4068;42.158;24.732;2023-06-26T02:12:08;12.43;;;7.93;;
8050;SDS011;4068;42.158;24.732;2023-06-26T02:14:34;15.95;;;8.73;;
8050;SDS011;4068;42.158;24.732;2023-06-26T02:16:59;12.82;;;7.57;;
8050;SDS011;4068;42.158;24.732;2023-06-26T02:19:25;13.27;;;7.50;;
8050;SDS011;4068;42.158;24.732;2023-06-26T02:21:53;14.38;;;8.07;;
8050;SDS011;4068;42.158;24.732;2023-06-26T02:24:18;15.55;;;7.93;;
8050;SDS011;4068;42.158;24.732;2023-06-26T02:26:44;14.60;;;8.18;;
8050;SDS011;4068;42.158;24.732;2023-06-26T02:29:10;11.52;;;7.57;;
8050;SDS011;4068;42.158;24.732;2023-06-26T02:31:36;11.18;;;7.90;;
8050;SDS011;4068;42.158;24.732;2023-06-26T02:34:03;15.70;;;8.65;;
8050;SDS011;4068;42.158;24.732;2023-06-26T02:36:29;13.80;;;8.05;;
8050;SDS011;4068;42.158;24.732;2023-06-26T02:38:54;14.20;;;8.00;;
8050;SDS011;4068;42.158;24.732;2023-06-26T02:41:20;20.00;;;8.10;;
8050;SDS011;4068;42.158;24.732;2023-06-26T02:43:45;13.75;;;8.63;;
8050;SDS011;4068;42.158;24.732;2023-06-26T02:46:10;12.75;;;8.13;;
8050;SDS011;4068;42.158;24.732;2023-06-26T02:48:36;16.35;;;8.10;;
8050;SDS011;4068;42.158;24.732;2023-06-26T02:51:01;15.05;;;8.45;;
8050;SDS011;4068;42.158;24.732;2023-06-26T02:53:27;15.30;;;8.25;;
8050;SDS011;4068;42.158;24.732;2023-06-26T02:55:52;14.18;;;9.00;;
8050;SDS011;4068;42.158;24.732;2023-06-26T02:58:18;17.10;;;8.18;;
8050;SDS011;4068;42.158;24.732;2023-06-26T03:00:43;13.32;;;8.23;;
8050;SDS011;4068;42.158;24.732;2023-06-26T03:03:09;14.18;;;8.27;;
8050;SDS011;4068;42.158;24.732;2023-06-26T03:05:35;15.07;;;8.65;;
8050;SDS011;4068;42.158;24.732;2023-06-26T03:08:02;12.77;;;8.23;;
8050;SDS011;4068;42.158;24.732;2023-06-26T03:10:27;19.25;;;9.50;;
8050;SDS011;4068;42.158;24.732;2023-06-26T03:12:53;20.33;;;9.68;;
8050;SDS011;4068;42.158;24.732;2023-06-26T03:15:18;15.35;;;8.90;;
8050;SDS011;4068;42.158;24.732;2023-06-26T03:17:44;14.27;;;8.88;;
8050;SDS011;4068;42.158;24.732;2023-06-26T03:20:09;15.93;;;9.07;;
8050;SDS011;4068;42.158;24.732;2023-06-26T03:22:35;18.23;;;9.45;;
8050;SDS011;4068;42.158;24.732;2023-06-26T03:25:01;12.95;;;8.88;;
8050;SDS011;4068;42.158;24.732;2023-06-26T03:27:28;14.63;;;9.25;;
8050;SDS011;4068;42.158;24.732;2023-06-26T03:29:53;16.90;;;9.73;;
8050;SDS011;4068;42.158;24.732;2023-06-26T03:32:18;13.77;;;8.38;;
8050;SDS011;4068;42.158;24.732;2023-06-26T03:34:44;17.52;;;9.45;;
8050;SDS011;4068;42.158;24.732;2023-06-26T03:37:09;15.13;;;8.82;;
8050;SDS011;4068;42.158;24.732;2023-06-26T03:39:35;15.15;;;8.95;;
8050;SDS011;4068;42.158;24.732;2023-06-26T03:42:00;14.52;;;9.48;;
8050;SDS011;4068;42.158;24.732;2023-06-26T03:44:28;14.80;;;9.25;;
8050;SDS011;4068;42.158;24.732;2023-06-26T03:46:54;15.43;;;9.73;;
8050;SDS011;4068;42.158;24.732;2023-06-26T03:49:19;17.98;;;9.75;;
8050;SDS011;4068;42.158;24.732;2023-06-26T03:51:45;12.98;;;9.02;;
8050;SDS011;4068;42.158;24.732;2023-06-26T03:54:10;13.60;;;8.93;;
8050;SDS011;4068;42.158;24.732;2023-06-26T03:56:36;14.68;;;9.20;;
8050;SDS011;4068;42.158;24.732;2023-06-26T03:59:01;18.77;;;9.27;;
8050;SDS011;4068;42.158;24.732;2023-06-26T04:01:27;13.27;;;9.02;;
8050;SDS011;4068;42.158;24.732;2023-06-26T04:03:53;14.23;;;8.40;;
8050;SDS011;4068;42.158;24.732;2023-06-26T04:06:21;11.90;;;8.25;;
8050;SDS011;4068;42.158;24.732;2023-06-26T04:08:47;13.55;;;8.55;;
8050;SDS011;4068;42.158;24.732;2023-06-26T04:11:13;13.27;;;8.85;;
8050;SDS011;4068;42.158;24.732;2023-06-26T04:13:38;14.88;;;9.13;;
8050;SDS011;4068;42.158;24.732;2023-06-26T04:16:04;16.88;;;8.98;;
8050;SDS011;4068;42.158;24.732;2023-06-26T04:18:30;13.68;;;8.35;;
8050;SDS011;4068;42.158;24.732;2023-06-26T04:21:05;15.05;;;9.73;;
8050;SDS011;4068;42.158;24.732;2023-06-26T04:23:36;13.45;;;8.85;;
8050;SDS011;4068;42.158;24.732;2023-06-26T04:26:03;15.77;;;9.23;;
8050;SDS011;4068;42.158;24.732;2023-06-26T04:28:35;15.52;;;9.20;;
8050;SDS011;4068;42.158;24.732;2023-06-26T04:31:01;13.55;;;8.82;;
8050;SDS011;4068;42.158;24.732;2023-06-26T04:33:28;13.05;;;8.77;;
8050;SDS011;4068;42.158;24.732;2023-06-26T04:35:54;13.80;;;9.15;;
8050;SDS011;4068;42.158;24.732;2023-06-26T04:38:19;14.77;;;8.52;;
8050;SDS011;4068;42.158;24.732;2023-06-26T04:40:46;15.88;;;9.13;;
8050;SDS011;4068;42.158;24.732;2023-06-26T04:43:12;15.07;;;9.27;;
8050;SDS011;4068;42.158;24.732;2023-06-26T04:45:38;13.05;;;9.27;;
8050;SDS011;4068;42.158;24.732;2023-06-26T04:48:03;13.98;;;9.68;;
8050;SDS011;4068;42.158;24.732;2023-06-26T04:50:30;14.18;;;9.07;;
8050;SDS011;4068;42.158;24.732;2023-06-26T04:52:56;14.25;;;9.07;;
8050;SDS011;4068;42.158;24.732;2023-06-26T04:55:23;15.15;;;9.32;;
8050;SDS011;4068;42.158;24.732;2023-06-26T04:57:49;19.58;;;9.50;;
8050;SDS011;4068;42.158;24.732;2023-06-26T05:00:14;14.45;;;9.60;;
8050;SDS011;4068;42.158;24.732;2023-06-26T05:02:40;11.38;;;8.40;;
8050;SDS011;4068;42.158;24.732;2023-06-26T05:05:06;14.82;;;8.55;;
8050;SDS011;4068;42.158;24.732;2023-06-26T05:07:32;12.07;;;8.15;;
8050;SDS011;4068;42.158;24.732;2023-06-26T05:09:57;11.23;;;7.97;;
8050;SDS011;4068;42.158;24.732;2023-06-26T05:12:23;12.13;;;8.32;;
8050;SDS011;4068;42.158;24.732;2023-06-26T05:14:48;13.68;;;8.18;;
8050;SDS011;4068;42.158;24.732;2023-06-26T05:17:14;13.80;;;8.30;;
8050;SDS011;4068;42.158;24.732;2023-06-26T05:19:40;10.45;;;8.27;;
8050;SDS011;4068;42.158;24.732;2023-06-26T05:22:05;12.05;;;8.00;;
8050;SDS011;4068;42.158;24.732;2023-06-26T05:24:35;12.23;;;7.65;;
8050;SDS011;4068;42.158;24.732;2023-06-26T05:27:02;9.35;;;7.97;;
8050;SDS011;4068;42.158;24.732;2023-06-26T05:29:29;10.52;;;7.85;;
8050;SDS011;4068;42.158;24.732;2023-06-26T05:31:58;12.15;;;8.13;;
8050;SDS011;4068;42.158;24.732;2023-06-26T05:34:24;11.70;;;7.80;;
8050;SDS011;4068;42.158;24.732;2023-06-26T05:36:54;9.77;;;7.70;;
8050;SDS011;4068;42.158;24.732;2023-06-26T05:39:23;10.30;;;7.25;;
8050;SDS011;4068;42.158;24.732;2023-06-26T05:41:49;11.40;;;7.55;;
8050;SDS011;4068;42.158;24.732;2023-06-26T05:44:15;11.45;;;7.70;;
8050;SDS011;4068;42.158;24.732;2023-06-26T05:46:41;11.13;;;7.10;;
8050;SDS011;4068;42.158;24.732;2023-06-26T05:49:06;9.65;;;6.90;;
8050;SDS011;4068;42.158;24.732;2023-06-26T05:51:32;10.63;;;6.90;;
8050;SDS011;4068;42.158;24.732;2023-06-26T05:53:57;10.02;;;6.82;;
8050;SDS011;4068;42.158;24.732;2023-06-26T05:56:23;9.02;;;6.68;;
8050;SDS011;4068;42.158;24.732;2023-06-26T05:58:49;10.57;;;6.70;;
8050;SDS011;4068;42.158;24.732;2023-06-26T06:01:16;12.50;;;7.45;;
8050;SDS011;4068;42.158;24.732;2023-06-26T06:03:42;12.25;;;7.38;;
8050;SDS011;4068;42.158;24.732;2023-06-26T06:06:08;10.70;;;6.82;;
8050;SDS011;4068;42.158;24.732;2023-06-26T06:08:33;9.50;;;6.47;;
8050;SDS011;4068;42.158;24.732;2023-06-26T06:10:59;10.13;;;6.95;;
8050;SDS011;4068;42.158;24.732;2023-06-26T06:13:25;9.82;;;6.25;;
8050;SDS011;4068;42.158;24.732;2023-06-26T06:15:50;9.80;;;7.07;;
8050;SDS011;4068;42.158;24.732;2023-06-26T06:18:16;9.52;;;6.53;;
8050;SDS011;4068;42.158;24.732;2023-06-26T06:20:41;12.55;;;7.47;;
8050;SDS011;4068;42.158;24.732;2023-06-26T06:23:07;10.60;;;6.78;;
8050;SDS011;4068;42.158;24.732;2023-06-26T06:25:32;8.65;;;6.45;;
8050;SDS011;4068;42.158;24.732;2023-06-26T06:27:57;9.05;;;6.60;;
8050;SDS011;4068;42.158;24.732;2023-06-26T06:30:23;9.45;;;6.93;;
8050;SDS011;4068;42.158;24.732;2023-06-26T06:32:48;10.68;;;7.15;;
8050;SDS011;4068;42.158;24.732;2023-06-26T06:35:17;9.90;;;6.90;;
8050;SDS011;4068;42.158;24.732;2023-06-26T06:37:43;10.65;;;6.85;;
8050;SDS011;4068;42.158;24.732;2023-06-26T06:40:09;7.88;;;6.82;;
8050;SDS011;4068;42.158;24.732;2023-06-26T06:42:35;9.27;;;5.95;;
8050;SDS011;4068;42.158;24.732;2023-06-26T06:45:04;11.80;;;5.88;;
8050;SDS011;4068;42.158;24.732;2023-06-26T06:47:33;10.00;;;6.53;;
8050;SDS011;4068;42.158;24.732;2023-06-26T06:49:59;9.38;;;5.90;;
8050;SDS011;4068;42.158;24.732;2023-06-26T06:52:34;11.20;;;6.50;;
8050;SDS011;4068;42.158;24.732;2023-06-26T06:55:01;9.77;;;6.50;;
8050;SDS011;4068;42.158;24.732;2023-06-26T06:57:31;7.10;;;5.80;;
8050;SDS011;4068;42.158;24.732;2023-06-26T07:00:01;8.18;;;6.30;;
8050;SDS011;4068;42.158;24.732;2023-06-26T07:02:29;11.63;;;6.20;;
8050;SDS011;4068;42.158;24.732;2023-06-26T07:04:55;6.65;;;5.95;;
8050;SDS011;4068;42.158;24.732;2023-06-26T07:07:20;11.35;;;6.05;;
8050;SDS011;4068;42.158;24.732;2023-06-26T07:09:45;8.38;;;5.80;;
8050;SDS011;4068;42.158;24.732;2023-06-26T07:12:11;9.50;;;6.25;;
8050;SDS011;4068;42.158;24.732;2023-06-26T07:14:36;7.18;;;5.30;;
8050;SDS011;4068;42.158;24.732;2023-06-26T07:17:02;8.15;;;5.85;;
8050;SDS011;4068;42.158;24.732;2023-06-26T07:19:27;7.63;;;5.53;;
8050;SDS011;4068;42.158;24.732;2023-06-26T07:21:53;11.75;;;6.30;;
8050;SDS011;4068;42.158;24.732;2023-06-26T07:24:18;9.05;;;5.80;;
8050;SDS011;4068;42.158;24.732;2023-06-26T07:26:44;7.70;;;6.32;;
8050;SDS011;4068;42.158;24.732;2023-06-26T07:29:09;7.50;;;5.43;;
8050;SDS011;4068;42.158;24.732;2023-06-26T07:31:34;6.00;;;5.20;;
8050;SDS011;4068;42.158;24.732;2023-06-26T07:34:00;8.35;;;6.07;;
8050;SDS011;4068;42.158;24.732;2023-06-26T07:36:25;6.07;;;5.22;;
8050;SDS011;4068;42.158;24.732;2023-06-26T07:38:51;5.78;;;5.13;;
8050;SDS011;4068;42.158;24.732;2023-06-26T07:41:16;9.90;;;5.32;;
8050;SDS011;4068;42.158;24.732;2023-06-26T07:43:42;6.03;;;4.90;;
8050;SDS011;4068;42.158;24.732;2023-06-26T07:46:07;7.45;;;4.95;;
8050;SDS011;4068;42.158;24.732;2023-06-26T07:48:32;5.43;;;4.40;;
8050;SDS011;4068;42.158;24.732;2023-06-26T07:50:58;9.65;;;4.85;;
8050;SDS011;4068;42.158;24.732;2023-06-26T07:53:23;10.85;;;5.80;;
8050;SDS011;4068;42.158;24.732;2023-06-26T07:55:49;8.73;;;4.38;;
8050;SDS011;4068;42.158;24.732;2023-06-26T07:58:14;9.63;;;5.70;;
8050;SDS011;4068;42.158;24.732;2023-06-26T08:00:40;8.80;;;5.22;;
8050;SDS011;4068;42.158;24.732;2023-06-26T08:03:05;13.52;;;4.53;;
8050;SDS011;4068;42.158;24.732;2023-06-26T08:05:31;8.77;;;4.95;;
8050;SDS011;4068;42.158;24.732;2023-06-26T08:07:56;10.05;;;5.05;;
8050;SDS011;4068;42.158;24.732;2023-06-26T08:10:21;6.82;;;4.20;;
8050;SDS011;4068;42.158;24.732;2023-06-26T08:12:47;7.18;;;4.97;;
8050;SDS011;4068;42.158;24.732;2023-06-26T08:15:15;5.63;;;5.00;;
8050;SDS011;4068;42.158;24.732;2023-06-26T08:17:40;9.80;;;5.28;;
8050;SDS011;4068;42.158;24.732;2023-06-26T08:20:06;6.70;;;5.55;;
8050;SDS011;4068;42.158;24.732;2023-06-26T08:22:33;5.47;;;4.97;;
8050;SDS011;4068;42.158;24.732;2023-06-26T08:24:59;11.02;;;5.38;;
8050;SDS011;4068;42.158;24.732;2023-06-26T08:27:24;6.88;;;4.75;;
8050;SDS011;4068;42.158;24.732;2023-06-26T08:29:50;10.43;;;6.10;;
8050;SDS011;4068;42.158;24.732;2023-06-26T08:32:16;27.52;;;12.07;;
8050;SDS011;4068;42.158;24.732;2023-06-26T08:34:41;19.85;;;8.93;;
8050;SDS011;4068;42.158;24.732;2023-06-26T08:37:06;16.20;;;7.32;;
8050;SDS011;4068;42.158;24.732;2023-06-26T08:39:34;16.52;;;7.32;;
8050;SDS011;4068;42.158;24.732;2023-06-26T08:41:59;17.27;;;7.35;;
8050;SDS011;4068;42.158;24.732;2023-06-26T08:44:25;13.98;;;6.68;;
8050;SDS011;4068;42.158;24.732;2023-06-26T08:46:51;10.43;;;6.88;;
8050;SDS011;4068;42.158;24.732;2023-06-26T08:52:24;13.48;;;7.13;;
8050;SDS011;4068;42.158;24.732;2023-06-26T08:54:59;10.43;;;6.70;;
8050;SDS011;4068;42.158;24.732;2023-06-26T08:57:28;15.90;;;6.90;;
8050;SDS011;4068;42.158;24.732;2023-06-26T08:59:57;14.20;;;6.90;;
8050;SDS011;4068;42.158;24.732;2023-06-26T09:02:22;12.57;;;6.85;;
8050;SDS011;4068;42.158;24.732;2023-06-26T09:04:49;12.18;;;6.80;;
8050;SDS011;4068;42.158;24.732;2023-06-26T09:07:15;9.95;;;6.47;;
8050;SDS011;4068;42.158;24.732;2023-06-26T09:09:41;8.13;;;6.47;;
8050;SDS011;4068;42.158;24.732;2023-06-26T09:12:08;18.40;;;12.68;;
8050;SDS011;4068;42.158;24.732;2023-06-26T09:14:34;7.63;;;6.28;;
8050;SDS011;4068;42.158;24.732;2023-06-26T09:17:00;14.63;;;8.68;;
8050;SDS011;4068;42.158;24.732;2023-06-26T09:19:25;8.48;;;5.95;;
8050;SDS011;4068;42.158;24.732;2023-06-26T09:21:52;12.93;;;5.50;;
8050;SDS011;4068;42.158;24.732;2023-06-26T09:24:17;11.07;;;5.95;;
8050;SDS011;4068;42.158;24.732;2023-06-26T09:26:43;11.07;;;5.80;;
8050;SDS011;4068;42.158;24.732;2023-06-26T09:29:08;10.95;;;6.32;;
8050;SDS011;4068;42.158;24.732;2023-06-26T09:31:36;9.23;;;5.65;;
8050;SDS011;4068;42.158;24.732;2023-06-26T09:34:02;8.52;;;6.50;;
8050;SDS011;4068;42.158;24.732;2023-06-26T09:36:29;9.48;;;6.80;;
8050;SDS011;4068;42.158;24.732;2023-06-26T09:39:01;9.60;;;6.70;;
8050;SDS011;4068;42.158;24.732;2023-06-26T09:41:27;11.85;;;6.60;;
8050;SDS011;4068;42.158;24.732;2023-06-26T09:43:53;10.18;;;6.63;;
8050;SDS011;4068;42.158;24.732;2023-06-26T09:46:25;10.90;;;6.05;;
8050;SDS011;4068;42.158;24.732;2023-06-26T09:48:58;6.95;;;5.20;;
8050;SDS011;4068;42.158;24.732;2023-06-26T09:51:29;8.45;;;6.05;;
8050;SDS011;4068;42.158;24.732;2023-06-26T09:53:59;7.20;;;5.50;;
8050;SDS011;4068;42.158;24.732;2023-06-26T09:56:26;8.88;;;4.78;;
8050;SDS011;4068;42.158;24.732;2023-06-26T09:58:53;11.07;;;5.32;;
8050;SDS011;4068;42.158;24.732;2023-06-26T10:01:21;7.72;;;5.07;;
8050;SDS011;4068;42.158;24.732;2023-06-26T10:03:47;7.28;;;5.03;;
8050;SDS011;4068;42.158;24.732;2023-06-26T10:06:12;8.10;;;5.78;;
8050;SDS011;4068;42.158;24.732;2023-06-26T10:08:39;6.70;;;4.97;;
8050;SDS011;4068;42.158;24.732;2023-06-26T10:11:05;12.50;;;6.70;;
8050;SDS011;4068;42.158;24.732;2023-06-26T10:13:34;20.10;;;6.90;;
8050;SDS011;4068;42.158;24.732;2023-06-26T10:16:04;11.38;;;6.47;;
8050;SDS011;4068;42.158;24.732;2023-06-26T10:18:32;7.20;;;5.50;;
8050;SDS011;4068;42.158;24.732;2023-06-26T10:21:01;9.80;;;7.07;;
8050;SDS011;4068;42.158;24.732;2023-06-26T10:23:28;12.18;;;7.70;;
8050;SDS011;4068;42.158;24.732;2023-06-26T10:25:56;9.80;;;6.82;;
8050;SDS011;4068;42.158;24.732;2023-06-26T10:28:24;8.40;;;6.88;;
8050;SDS011;4068;42.158;24.732;2023-06-26T10:30:51;10.20;;;6.35;;
8050;SDS011;4068;42.158;24.732;2023-06-26T10:33:19;10.50;;;6.25;;
8050;SDS011;4068;42.158;24.732;2023-06-26T10:35:45;12.93;;;6.45;;
8050;SDS011;4068;42.158;24.732;2023-06-26T10:38:11;9.13;;;5.65;;
8050;SDS011;4068;42.158;24.732;2023-06-26T10:40:43;12.20;;;6.00;;
8050;SDS011;4068;42.158;24.732;2023-06-26T10:43:11;6.05;;;5.45;;
8050;SDS011;4068;42.158;24.732;2023-06-26T10:45:44;7.10;;;5.13;;
8050;SDS011;4068;42.158;24.732;2023-06-26T10:48:18;6.43;;;4.72;;
8050;SDS011;4068;42.158;24.732;2023-06-26T10:50:46;7.75;;;4.90;;
8050;SDS011;4068;42.158;24.732;2023-06-26T10:53:23;9.73;;;5.07;;
8050;SDS011;4068;42.158;24.732;2023-06-26T10:56:00;16.70;;;6.38;;
8050;SDS011;4068;42.158;24.732;2023-06-26T10:58:30;8.02;;;5.05;;
8050;SDS011;4068;42.158;24.732;2023-06-26T11:03:40;16.25;;;6.18;;
8050;SDS011;4068;42.158;24.732;2023-06-26T11:11:12;9.63;;;5.55;;
8050;SDS011;4068;42.158;24.732;2023-06-26T11:13:37;16.33;;;5.88;;
8050;SDS011;4068;42.158;24.732;2023-06-26T11:16:04;11.40;;;6.07;;
8050;SDS011;4068;42.158;24.732;2023-06-26T11:18:31;5.95;;;4.90;;
8050;SDS011;4068;42.158;24.732;2023-06-26T11:21:17;9.55;;;5.03;;
8050;SDS011;4068;42.158;24.732;2023-06-26T11:23:46;11.15;;;5.05;;
8050;SDS011;4068;42.158;24.732;2023-06-26T11:26:17;5.85;;;4.35;;
8050;SDS011;4068;42.158;24.732;2023-06-26T11:28:50;5.68;;;4.10;;
8050;SDS011;4068;42.158;24.732;2023-06-26T11:31:29;7.78;;;4.20;;
8050;SDS011;4068;42.158;24.732;2023-06-26T11:33:57;17.65;;;5.20;;
8050;SDS011;4068;42.158;24.732;2023-06-26T11:36:26;8.85;;;4.03;;
8050;SDS011;4068;42.158;24.732;2023-06-26T11:38:53;11.10;;;4.72;;
8050;SDS011;4068;42.158;24.732;2023-06-26T11:41:19;7.22;;;4.45;;
8050;SDS011;4068;42.158;24.732;2023-06-26T11:43:45;7.70;;;4.38;;
8050;SDS011;4068;42.158;24.732;2023-06-26T11:46:11;7.65;;;5.60;;
8050;SDS011;4068;42.158;24.732;2023-06-26T11:48:37;15.45;;;6.93;;
8050;SDS011;4068;42.158;24.732;2023-06-26T11:51:04;9.18;;;5.93;;
8050;SDS011;4068;42.158;24.732;2023-06-26T11:53:30;12.60;;;6.88;;
8050;SDS011;4068;42.158;24.732;2023-06-26T11:55:56;12.25;;;6.00;;
8050;SDS011;4068;42.158;24.732;2023-06-26T11:58:22;12.05;;;5.45;;
8050;SDS011;4068;42.158;24.732;2023-06-26T12:00:48;19.27;;;6.63;;
8050;SDS011;4068;42.158;24.732;2023-06-26T12:03:14;11.93;;;5.00;;
8050;SDS011;4068;42.158;24.732;2023-06-26T12:05:40;14.25;;;6.55;;
8050;SDS011;4068;42.158;24.732;2023-06-26T12:08:10;13.23;;;6.18;;
8050;SDS011;4068;42.158;24.732;2023-06-26T12:10:35;23.27;;;6.43;;
8050;SDS011;4068;42.158;24.732;2023-06-26T12:13:01;14.02;;;6.68;;
8050;SDS011;4068;42.158;24.732;2023-06-26T12:15:26;14.98;;;7.38;;
8050;SDS011;4068;42.158;24.732;2023-06-26T12:17:53;14.73;;;6.20;;
8050;SDS011;4068;42.158;24.732;2023-06-26T12:20:22;12.40;;;5.93;;
8050;SDS011;4068;42.158;24.732;2023-06-26T12:22:49;11.95;;;5.82;;
8050;SDS011;4068;42.158;24.732;2023-06-26T12:25:15;17.17;;;6.07;;
8050;SDS011;4068;42.158;24.732;2023-06-26T12:27:40;11.07;;;4.55;;
8050;SDS011;4068;42.158;24.732;2023-06-26T12:30:06;5.40;;;3.40;;
8050;SDS011;4068;42.158;24.732;2023-06-26T12:32:32;6.78;;;4.70;;
8050;SDS011;4068;42.158;24.732;2023-06-26T12:34:59;5.45;;;3.67;;
8050;SDS011;4068;42.158;24.732;2023-06-26T12:37:25;8.57;;;4.30;;
8050;SDS011;4068;42.158;24.732;2023-06-26T12:39:52;6.38;;;3.83;;
8050;SDS011;4068;42.158;24.732;2023-06-26T12:42:18;6.13;;;3.03;;
8050;SDS011;4068;42.158;24.732;2023-06-26T12:44:46;8.05;;;4.60;;
8050;SDS011;4068;42.158;24.732;2023-06-26T12:47:12;7.35;;;3.10;;
8050;SDS011;4068;42.158;24.732;2023-06-26T12:49:40;18.73;;;4.70;;
8050;SDS011;4068;42.158;24.732;2023-06-26T12:52:11;19.60;;;4.00;;
8050;SDS011;4068;42.158;24.732;2023-06-26T12:54:39;5.95;;;4.03;;
8050;SDS011;4068;42.158;24.732;2023-06-26T12:57:06;9.00;;;3.92;;
8050;SDS011;4068;42.158;24.732;2023-06-26T12:59:32;7.63;;;4.65;;
8050;SDS011;4068;42.158;24.732;2023-06-26T13:01:59;6.80;;;4.47;;
8050;SDS011;4068;42.158;24.732;2023-06-26T13:04:24;7.32;;;4.68;;
8050;SDS011;4068;42.158;24.732;2023-06-26T13:06:50;7.20;;;4.30;;
8050;SDS011;4068;42.158;24.732;2023-06-26T13:09:16;9.18;;;4.78;;
8050;SDS011;4068;42.158;24.732;2023-06-26T13:11:42;6.47;;;4.50;;
8050;SDS011;4068;42.158;24.732;2023-06-26T13:14:08;7.15;;;4.43;;
8050;SDS011;4068;42.158;24.732;2023-06-26T13:16:33;8.00;;;3.75;;
8050;SDS011;4068;42.158;24.732;2023-06-26T13:18:59;6.97;;;3.78;;
8050;SDS011;4068;42.158;24.732;2023-06-26T13:21:26;6.53;;;4.10;;
8050;SDS011;4068;42.158;24.732;2023-06-26T13:23:52;4.28;;;3.20;;
8050;SDS011;4068;42.158;24.732;2023-06-26T13:26:18;6.13;;;3.75;;
8050;SDS011;4068;42.158;24.732;2023-06-26T13:28:44;5.03;;;4.20;;
8050;SDS011;4068;42.158;24.732;2023-06-26T13:31:10;5.18;;;4.00;;
8050;SDS011;4068;42.158;24.732;2023-06-26T13:33:35;5.90;;;4.78;;
8050;SDS011;4068;42.158;24.732;2023-06-26T13:36:01;9.70;;;5.07;;
8050;SDS011;4068;42.158;24.732;2023-06-26T13:38:29;9.63;;;4.70;;
8050;SDS011;4068;42.158;24.732;2023-06-26T13:40:57;7.63;;;4.20;;
8050;SDS011;4068;42.158;24.732;2023-06-26T13:43:24;5.93;;;3.38;;
8050;SDS011;4068;42.158;24.732;2023-06-26T13:45:50;7.57;;;4.55;;
8050;SDS011;4068;42.158;24.732;2023-06-26T13:48:15;8.60;;;3.88;;
8050;SDS011;4068;42.158;24.732;2023-06-26T13:50:41;4.57;;;3.28;;
8050;SDS011;4068;42.158;24.732;2023-06-26T13:53:06;12.00;;;6.07;;
8050;SDS011;4068;42.158;24.732;2023-06-26T13:55:32;6.05;;;3.30;;
8050;SDS011;4068;42.158;24.732;2023-06-26T13:57:58;7.78;;;3.30;;
8050;SDS011;4068;42.158;24.732;2023-06-26T14:00:24;5.78;;;3.33;;
8050;SDS011;4068;42.158;24.732;2023-06-26T14:02:50;8.65;;;3.67;;
8050;SDS011;4068;42.158;24.732;2023-06-26T14:05:16;5.38;;;3.60;;
8050;SDS011;4068;42.158;24.732;2023-06-26T14:07:43;6.38;;;3.53;;
8050;SDS011;4068;42.158;24.732;2023-06-26T14:10:12;9.00;;;3.55;;
8050;SDS011;4068;42.158;24.732;2023-06-26T14:12:38;4.95;;;3.88;;
8050;SDS011;4068;42.158;24.732;2023-06-26T14:15:05;6.07;;;3.72;;
8050;SDS011;4068;42.158;24.732;2023-06-26T14:17:31;4.32;;;3.33;;
8050;SDS011;4068;42.158;24.732;2023-06-26T14:19:56;5.63;;;4.05;;
8050;SDS011;4068;42.158;24.732;2023-06-26T14:22:22;5.78;;;3.42;;
8050;SDS011;4068;42.158;24.732;2023-06-26T14:24:48;11.05;;;4.18;;
8050;SDS011;4068;42.158;24.732;2023-06-26T14:27:14;11.82;;;4.22;;
8050;SDS011;4068;42.158;24.732;2023-06-26T14:29:39;7.47;;;4.18;;
8050;SDS011;4068;42.158;24.732;2023-06-26T14:32:05;7.75;;;4.18;;
8050;SDS011;4068;42.158;24.732;2023-06-26T14:34:31;10.60;;;3.47;;
8050;SDS011;4068;42.158;24.732;2023-06-26T14:36:57;5.55;;;3.45;;
8050;SDS011;4068;42.158;24.732;2023-06-26T14:39:23;10.05;;;3.85;;
8050;SDS011;4068;42.158;24.732;2023-06-26T14:41:48;7.38;;;3.58;;
8050;SDS011;4068;42.158;24.732;2023-06-26T14:44:14;5.97;;;4.00;;
8050;SDS011;4068;42.158;24.732;2023-06-26T14:46:40;9.05;;;3.80;;
8050;SDS011;4068;42.158;24.732;2023-06-26T14:49:05;4.97;;;3.00;;
8050;SDS011;4068;42.158;24.732;2023-06-26T14:51:31;7.50;;;4.00;;
8050;SDS011;4068;42.158;24.732;2023-06-26T14:53:56;10.73;;;3.95;;
8050;SDS011;4068;42.158;24.732;2023-06-26T14:56:22;6.38;;;3.65;;
8050;SDS011;4068;42.158;24.732;2023-06-26T14:58:47;10.98;;;4.40;;
8050;SDS011;4068;42.158;24.732;2023-06-26T15:01:13;7.63;;;4.80;;
8050;SDS011;4068;42.158;24.732;2023-06-26T15:03:41;7.90;;;4.00;;
8050;SDS011;4068;42.158;24.732;2023-06-26T15:06:07;7.10;;;3.88;;